sensor_id;sensor_type;location;lat;lon;timestamp;P1;durP1;ratioP1;P2;durP2;ratioP2
58876;SDS011;44659;47.002;9.536;2022-11-20T00:00:36;1.98;;;0.90;;
58876;SDS011;44659;47.002;9.536;2022-11-20T00:03:01;4.80;;;1.00;;
58876;SDS011;44659;47.002;9.536;2022-11-20T00:05:27;2.33;;;1.10;;
58876;SDS011;44659;47.002;9.536;2022-11-20T00:07:52;2.03;;;1.02;;
58876;SDS011;44659;47.002;9.536;2022-11-20T00:10:17;2.22;;;0.90;;
58876;SDS011;44659;47.002;9.536;2022-11-20T00:12:42;2.55;;;1.00;;
58876;SDS011;44659;47.002;9.536;2022-11-20T00:15:08;2.80;;;1.20;;
58876;SDS011;44659;47.002;9.536;2022-11-20T00:17:33;3.72;;;1.30;;
58876;SDS011;44659;47.002;9.536;2022-11-20T00:19:59;4.30;;;1.50;;
58876;SDS011;44659;47.002;9.536;2022-11-20T00:22:24;4.65;;;1.40;;
58876;SDS011;44659;47.002;9.536;2022-11-20T00:24:49;2.40;;;1.20;;
58876;SDS011;44659;47.002;9.536;2022-11-20T00:27:14;1.70;;;1.05;;
58876;SDS011;44659;47.002;9.536;2022-11-20T00:29:40;3.50;;;1.27;;
58876;SDS011;44659;47.002;9.536;2022-11-20T00:32:05;3.97;;;1.20;;
58876;SDS011;44659;47.002;9.536;2022-11-20T00:34:30;2.70;;;1.30;;
58876;SDS011;44659;47.002;9.536;2022-11-20T00:36:55;2.30;;;1.13;;
58876;SDS011;44659;47.002;9.536;2022-11-20T00:39:21;2.33;;;1.20;;
58876;SDS011;44659;47.002;9.536;2022-11-20T00:41:46;4.15;;;1.45;;
58876;SDS011;44659;47.002;9.536;2022-11-20T00:44:11;3.08;;;1.40;;
58876;SDS011;44659;47.002;9.536;2022-11-20T00:46:36;2.88;;;1.30;;
58876;SDS011;44659;47.002;9.536;2022-11-20T00:49:02;3.38;;;1.30;;
58876;SDS011;44659;47.002;9.536;2022-11-20T00:51:27;2.13;;;1.38;;
58876;SDS011;44659;47.002;9.536;2022-11-20T00:53:54;5.93;;;1.25;;
58876;SDS011;44659;47.002;9.536;2022-11-20T00:56:20;3.33;;;1.30;;
58876;SDS011;44659;47.002;9.536;2022-11-20T00:58:46;3.30;;;1.40;;
58876;SDS011;44659;47.002;9.536;2022-11-20T01:03:38;3.23;;;1.60;;
58876;SDS011;44659;47.002;9.536;2022-11-20T01:06:19;3.13;;;1.40;;
58876;SDS011;44659;47.002;9.536;2022-11-20T01:08:45;5.35;;;1.52;;
58876;SDS011;44659;47.002;9.536;2022-11-20T01:11:15;3.85;;;1.58;;
58876;SDS011;44659;47.002;9.536;2022-11-20T01:13:41;4.47;;;1.65;;
58876;SDS011;44659;47.002;9.536;2022-11-20T01:18:35;2.95;;;1.55;;
58876;SDS011;44659;47.002;9.536;2022-11-20T01:21:01;3.30;;;1.67;;
58876;SDS011;44659;47.002;9.536;2022-11-20T01:23:29;3.65;;;1.95;;
58876;SDS011;44659;47.002;9.536;2022-11-20T01:25:55;4.15;;;1.70;;
58876;SDS011;44659;47.002;9.536;2022-11-20T01:28:20;3.00;;;1.63;;
58876;SDS011;44659;47.002;9.536;2022-11-20T01:30:45;4.45;;;2.10;;
58876;SDS011;44659;47.002;9.536;2022-11-20T01:33:10;4.05;;;2.10;;
58876;SDS011;44659;47.002;9.536;2022-11-20T01:35:36;4.13;;;2.00;;
58876;SDS011;44659;47.002;9.536;2022-11-20T01:38:01;4.82;;;2.10;;
58876;SDS011;44659;47.002;9.536;2022-11-20T01:40:26;5.18;;;2.55;;
58876;SDS011;44659;47.002;9.536;2022-11-20T01:42:53;7.60;;;2.25;;
58876;SDS011;44659;47.002;9.536;2022-11-20T01:48:13;5.63;;;2.42;;
58876;SDS011;44659;47.002;9.536;2022-11-20T01:50:38;6.30;;;3.50;;
58876;SDS011;44659;47.002;9.536;2022-11-20T01:53:05;4.47;;;2.38;;
58876;SDS011;44659;47.002;9.536;2022-11-20T01:55:36;3.75;;;1.83;;
58876;SDS011;44659;47.002;9.536;2022-11-20T01:58:03;2.97;;;1.85;;
58876;SDS011;44659;47.002;9.536;2022-11-20T02:00:28;3.58;;;2.03;;
58876;SDS011;44659;47.002;9.536;2022-11-20T02:02:55;3.90;;;2.10;;
58876;SDS011;44659;47.002;9.536;2022-11-20T02:07:47;4.78;;;2.20;;
58876;SDS011;44659;47.002;9.536;2022-11-20T02:10:13;5.30;;;2.10;;
58876;SDS011;44659;47.002;9.536;2022-11-20T02:12:39;4.30;;;1.98;;
58876;SDS011;44659;47.002;9.536;2022-11-20T02:15:23;5.10;;;2.20;;
58876;SDS011;44659;47.002;9.536;2022-11-20T02:17:48;5.72;;;2.00;;
58876;SDS011;44659;47.002;9.536;2022-11-20T02:20:13;3.78;;;1.80;;
58876;SDS011;44659;47.002;9.536;2022-11-20T02:22:43;3.42;;;2.00;;
58876;SDS011;44659;47.002;9.536;2022-11-20T02:25:09;3.95;;;2.00;;
58876;SDS011;44659;47.002;9.536;2022-11-20T02:27:35;5.32;;;2.08;;
58876;SDS011;44659;47.002;9.536;2022-11-20T02:30:01;2.90;;;1.77;;
58876;SDS011;44659;47.002;9.536;2022-11-20T02:32:31;3.53;;;1.92;;
58876;SDS011;44659;47.002;9.536;2022-11-20T02:34:57;3.05;;;1.70;;
58876;SDS011;44659;47.002;9.536;2022-11-20T02:37:23;4.82;;;1.52;;
58876;SDS011;44659;47.002;9.536;2022-11-20T02:39:51;3.42;;;1.60;;
58876;SDS011;44659;47.002;9.536;2022-11-20T02:42:17;4.18;;;1.42;;
58876;SDS011;44659;47.002;9.536;2022-11-20T02:44:42;3.00;;;1.50;;
58876;SDS011;44659;47.002;9.536;2022-11-20T02:47:08;3.85;;;1.60;;
58876;SDS011;44659;47.002;9.536;2022-11-20T02:49:33;3.00;;;1.60;;
58876;SDS011;44659;47.002;9.536;2022-11-20T02:51:58;5.47;;;1.50;;
58876;SDS011;44659;47.002;9.536;2022-11-20T02:54:24;3.10;;;1.70;;
58876;SDS011;44659;47.002;9.536;2022-11-20T02:56:49;3.08;;;1.50;;
58876;SDS011;44659;47.002;9.536;2022-11-20T02:59:14;5.40;;;1.73;;
58876;SDS011;44659;47.002;9.536;2022-11-20T03:01:40;3.22;;;1.33;;
58876;SDS011;44659;47.002;9.536;2022-11-20T03:04:05;3.88;;;1.75;;
58876;SDS011;44659;47.002;9.536;2022-11-20T03:06:30;3.45;;;1.70;;
58876;SDS011;44659;47.002;9.536;2022-11-20T03:08:56;2.72;;;1.42;;
58876;SDS011;44659;47.002;9.536;2022-11-20T03:11:21;2.67;;;1.40;;
58876;SDS011;44659;47.002;9.536;2022-11-20T03:13:47;2.65;;;1.20;;
58876;SDS011;44659;47.002;9.536;2022-11-20T03:16:13;4.22;;;1.80;;
58876;SDS011;44659;47.002;9.536;2022-11-20T03:18:39;2.70;;;1.42;;
58876;SDS011;44659;47.002;9.536;2022-11-20T03:21:05;2.20;;;1.40;;
58876;SDS011;44659;47.002;9.536;2022-11-20T03:23:31;3.28;;;1.40;;
58876;SDS011;44659;47.002;9.536;2022-11-20T03:26:06;3.95;;;1.40;;
58876;SDS011;44659;47.002;9.536;2022-11-20T03:28:32;2.55;;;1.40;;
58876;SDS011;44659;47.002;9.536;2022-11-20T03:30:57;3.30;;;1.40;;
58876;SDS011;44659;47.002;9.536;2022-11-20T03:33:22;3.78;;;1.60;;
58876;SDS011;44659;47.002;9.536;2022-11-20T03:35:47;4.90;;;1.80;;
58876;SDS011;44659;47.002;9.536;2022-11-20T03:38:13;4.50;;;1.80;;
58876;SDS011;44659;47.002;9.536;2022-11-20T03:40:38;4.70;;;1.75;;
58876;SDS011;44659;47.002;9.536;2022-11-20T03:43:03;5.05;;;1.80;;
58876;SDS011;44659;47.002;9.536;2022-11-20T03:45:28;3.40;;;1.77;;
58876;SDS011;44659;47.002;9.536;2022-11-20T03:47:54;4.23;;;1.87;;
58876;SDS011;44659;47.002;9.536;2022-11-20T03:50:20;3.65;;;1.70;;
58876;SDS011;44659;47.002;9.536;2022-11-20T03:52:46;4.22;;;1.90;;
58876;SDS011;44659;47.002;9.536;2022-11-20T03:55:11;5.85;;;1.90;;
58876;SDS011;44659;47.002;9.536;2022-11-20T03:57:36;3.80;;;1.80;;
58876;SDS011;44659;47.002;9.536;2022-11-20T04:00:02;3.25;;;1.70;;
58876;SDS011;44659;47.002;9.536;2022-11-20T04:02:28;3.78;;;1.60;;
58876;SDS011;44659;47.002;9.536;2022-11-20T04:04:53;3.75;;;1.92;;
58876;SDS011;44659;47.002;9.536;2022-11-20T04:07:18;5.07;;;1.50;;
58876;SDS011;44659;47.002;9.536;2022-11-20T04:09:43;3.85;;;1.70;;
58876;SDS011;44659;47.002;9.536;2022-11-20T04:12:09;3.28;;;1.63;;
58876;SDS011;44659;47.002;9.536;2022-11-20T04:14:34;3.85;;;1.75;;
58876;SDS011;44659;47.002;9.536;2022-11-20T04:16:59;3.58;;;1.90;;
58876;SDS011;44659;47.002;9.536;2022-11-20T04:19:24;3.88;;;1.73;;
58876;SDS011;44659;47.002;9.536;2022-11-20T04:21:50;4.38;;;1.80;;
58876;SDS011;44659;47.002;9.536;2022-11-20T04:24:15;3.80;;;1.77;;
58876;SDS011;44659;47.002;9.536;2022-11-20T04:26:40;4.25;;;2.00;;
58876;SDS011;44659;47.002;9.536;2022-11-20T04:29:06;4.32;;;2.10;;
58876;SDS011;44659;47.002;9.536;2022-11-20T04:31:32;5.20;;;1.70;;
58876;SDS011;44659;47.002;9.536;2022-11-20T04:34:01;3.85;;;1.88;;
58876;SDS011;44659;47.002;9.536;2022-11-20T04:36:27;6.38;;;1.58;;
58876;SDS011;44659;47.002;9.536;2022-11-20T04:38:53;2.72;;;1.58;;
58876;SDS011;44659;47.002;9.536;2022-11-20T04:41:19;3.90;;;1.73;;
58876;SDS011;44659;47.002;9.536;2022-11-20T04:43:49;3.20;;;1.67;;
58876;SDS011;44659;47.002;9.536;2022-11-20T04:46:14;4.00;;;1.70;;
58876;SDS011;44659;47.002;9.536;2022-11-20T04:48:39;2.92;;;1.60;;
58876;SDS011;44659;47.002;9.536;2022-11-20T04:51:05;3.30;;;1.52;;
58876;SDS011;44659;47.002;9.536;2022-11-20T04:53:30;3.78;;;1.80;;
58876;SDS011;44659;47.002;9.536;2022-11-20T04:56:02;4.97;;;1.45;;
58876;SDS011;44659;47.002;9.536;2022-11-20T04:58:28;5.97;;;1.52;;
58876;SDS011;44659;47.002;9.536;2022-11-20T05:00:53;2.60;;;1.30;;
58876;SDS011;44659;47.002;9.536;2022-11-20T05:03:18;2.65;;;1.30;;
58876;SDS011;44659;47.002;9.536;2022-11-20T05:05:44;2.00;;;1.38;;
58876;SDS011;44659;47.002;9.536;2022-11-20T05:08:09;4.20;;;1.23;;
58876;SDS011;44659;47.002;9.536;2022-11-20T05:10:34;2.70;;;1.35;;
58876;SDS011;44659;47.002;9.536;2022-11-20T05:12:59;2.53;;;1.20;;
58876;SDS011;44659;47.002;9.536;2022-11-20T05:15:25;1.98;;;1.23;;
58876;SDS011;44659;47.002;9.536;2022-11-20T05:17:50;3.20;;;1.35;;
58876;SDS011;44659;47.002;9.536;2022-11-20T05:20:16;2.42;;;1.35;;
58876;SDS011;44659;47.002;9.536;2022-11-20T05:22:43;4.00;;;1.98;;
58876;SDS011;44659;47.002;9.536;2022-11-20T05:25:08;3.42;;;1.55;;
58876;SDS011;44659;47.002;9.536;2022-11-20T05:27:34;4.55;;;1.60;;
58876;SDS011;44659;47.002;9.536;2022-11-20T05:29:59;3.88;;;1.98;;
58876;SDS011;44659;47.002;9.536;2022-11-20T05:32:24;2.75;;;1.65;;
58876;SDS011;44659;47.002;9.536;2022-11-20T05:34:52;3.67;;;2.08;;
58876;SDS011;44659;47.002;9.536;2022-11-20T05:37:18;7.65;;;2.60;;
58876;SDS011;44659;47.002;9.536;2022-11-20T05:39:43;3.95;;;2.10;;
58876;SDS011;44659;47.002;9.536;2022-11-20T05:42:08;4.05;;;2.10;;
58876;SDS011;44659;47.002;9.536;2022-11-20T05:44:52;5.55;;;2.10;;
58876;SDS011;44659;47.002;9.536;2022-11-20T05:47:17;4.18;;;2.20;;
58876;SDS011;44659;47.002;9.536;2022-11-20T05:49:43;4.85;;;1.98;;
58876;SDS011;44659;47.002;9.536;2022-11-20T05:52:08;4.97;;;2.17;;
58876;SDS011;44659;47.002;9.536;2022-11-20T05:54:36;5.70;;;2.40;;
58876;SDS011;44659;47.002;9.536;2022-11-20T05:57:45;4.10;;;1.90;;
58876;SDS011;44659;47.002;9.536;2022-11-20T06:00:32;4.47;;;2.30;;
58876;SDS011;44659;47.002;9.536;2022-11-20T06:03:00;3.47;;;2.08;;
58876;SDS011;44659;47.002;9.536;2022-11-20T06:07:57;4.47;;;2.42;;
58876;SDS011;44659;47.002;9.536;2022-11-20T06:10:24;3.92;;;2.10;;
58876;SDS011;44659;47.002;9.536;2022-11-20T06:12:50;4.45;;;2.00;;
58876;SDS011;44659;47.002;9.536;2022-11-20T06:15:40;3.75;;;1.80;;
58876;SDS011;44659;47.002;9.536;2022-11-20T06:18:29;8.10;;;2.17;;
58876;SDS011;44659;47.002;9.536;2022-11-20T06:21:01;4.10;;;1.55;;
58876;SDS011;44659;47.002;9.536;2022-11-20T06:23:49;4.00;;;1.90;;
58876;SDS011;44659;47.002;9.536;2022-11-20T06:26:16;3.45;;;1.80;;
58876;SDS011;44659;47.002;9.536;2022-11-20T06:28:45;2.47;;;1.50;;
58876;SDS011;44659;47.002;9.536;2022-11-20T06:31:13;5.22;;;2.03;;
58876;SDS011;44659;47.002;9.536;2022-11-20T06:33:43;5.00;;;1.60;;
58876;SDS011;44659;47.002;9.536;2022-11-20T06:38:47;3.25;;;1.75;;
58876;SDS011;44659;47.002;9.536;2022-11-20T06:54:08;3.25;;;1.70;;
58876;SDS011;44659;47.002;9.536;2022-11-20T14:09:59;4.22;;;0.90;;
58876;SDS011;44659;47.002;9.536;2022-11-20T14:12:29;1.95;;;0.80;;
58876;SDS011;44659;47.002;9.536;2022-11-20T14:14:55;3.50;;;0.80;;
58876;SDS011;44659;47.002;9.536;2022-11-20T14:19:46;2.42;;;0.82;;
58876;SDS011;44659;47.002;9.536;2022-11-20T14:24:39;1.25;;;0.73;;
58876;SDS011;44659;47.002;9.536;2022-11-20T14:27:05;3.92;;;0.90;;
58876;SDS011;44659;47.002;9.536;2022-11-20T14:29:36;1.67;;;0.73;;
58876;SDS011;44659;47.002;9.536;2022-11-20T14:32:02;1.55;;;0.80;;
58876;SDS011;44659;47.002;9.536;2022-11-20T14:34:29;1.45;;;0.73;;
58876;SDS011;44659;47.002;9.536;2022-11-20T14:37:02;2.08;;;0.88;;
58876;SDS011;44659;47.002;9.536;2022-11-20T14:39:31;10.65;;;4.50;;
58876;SDS011;44659;47.002;9.536;2022-11-20T14:41:57;9.55;;;3.95;;
58876;SDS011;44659;47.002;9.536;2022-11-20T14:44:24;3.97;;;1.60;;
58876;SDS011;44659;47.002;9.536;2022-11-20T14:46:51;6.90;;;2.55;;
58876;SDS011;44659;47.002;9.536;2022-11-20T14:49:17;6.43;;;3.28;;
58876;SDS011;44659;47.002;9.536;2022-11-20T14:51:42;5.43;;;2.65;;
58876;SDS011;44659;47.002;9.536;2022-11-20T14:54:12;4.90;;;1.90;;
58876;SDS011;44659;47.002;9.536;2022-11-20T14:56:39;6.30;;;2.10;;
58876;SDS011;44659;47.002;9.536;2022-11-20T14:59:04;5.03;;;1.77;;
58876;SDS011;44659;47.002;9.536;2022-11-20T15:01:30;5.00;;;2.03;;
58876;SDS011;44659;47.002;9.536;2022-11-20T15:04:05;3.90;;;1.50;;
58876;SDS011;44659;47.002;9.536;2022-11-20T15:06:30;5.28;;;1.92;;
58876;SDS011;44659;47.002;9.536;2022-11-20T15:08:56;9.13;;;3.42;;
58876;SDS011;44659;47.002;9.536;2022-11-20T15:11:25;6.03;;;1.90;;
58876;SDS011;44659;47.002;9.536;2022-11-20T15:13:52;5.32;;;1.98;;
58876;SDS011;44659;47.002;9.536;2022-11-20T15:16:18;7.07;;;3.00;;
58876;SDS011;44659;47.002;9.536;2022-11-20T15:18:44;5.53;;;2.53;;
58876;SDS011;44659;47.002;9.536;2022-11-20T15:21:13;8.07;;;3.38;;
58876;SDS011;44659;47.002;9.536;2022-11-20T15:23:39;6.32;;;3.00;;
58876;SDS011;44659;47.002;9.536;2022-11-20T15:26:04;10.63;;;4.18;;
58876;SDS011;44659;47.002;9.536;2022-11-20T15:28:31;7.65;;;3.70;;
58876;SDS011;44659;47.002;9.536;2022-11-20T15:30:57;6.50;;;3.03;;
58876;SDS011;44659;47.002;9.536;2022-11-20T15:33:22;3.63;;;2.00;;
58876;SDS011;44659;47.002;9.536;2022-11-20T15:35:47;4.50;;;2.00;;
58876;SDS011;44659;47.002;9.536;2022-11-20T15:38:13;6.07;;;3.08;;
58876;SDS011;44659;47.002;9.536;2022-11-20T15:40:38;4.47;;;2.60;;
58876;SDS011;44659;47.002;9.536;2022-11-20T15:43:04;4.13;;;2.42;;
58876;SDS011;44659;47.002;9.536;2022-11-20T15:45:33;4.78;;;2.50;;
58876;SDS011;44659;47.002;9.536;2022-11-20T15:47:59;4.00;;;1.80;;
58876;SDS011;44659;47.002;9.536;2022-11-20T15:50:25;2.35;;;1.38;;
58876;SDS011;44659;47.002;9.536;2022-11-20T15:52:52;5.30;;;2.88;;
58876;SDS011;44659;47.002;9.536;2022-11-20T15:55:17;3.20;;;1.73;;
58876;SDS011;44659;47.002;9.536;2022-11-20T15:57:42;3.72;;;1.17;;
58876;SDS011;44659;47.002;9.536;2022-11-20T16:00:08;3.03;;;1.30;;
58876;SDS011;44659;47.002;9.536;2022-11-20T16:02:33;6.70;;;3.20;;
58876;SDS011;44659;47.002;9.536;2022-11-20T16:04:59;5.55;;;2.20;;
58876;SDS011;44659;47.002;9.536;2022-11-20T16:07:24;4.10;;;2.20;;
58876;SDS011;44659;47.002;9.536;2022-11-20T16:09:49;6.60;;;3.72;;
58876;SDS011;44659;47.002;9.536;2022-11-20T16:12:14;6.43;;;3.60;;
58876;SDS011;44659;47.002;9.536;2022-11-20T16:17:44;3.83;;;1.60;;
58876;SDS011;44659;47.002;9.536;2022-11-20T16:20:12;5.88;;;1.60;;
58876;SDS011;44659;47.002;9.536;2022-11-20T16:22:37;2.83;;;1.30;;
58876;SDS011;44659;47.002;9.536;2022-11-20T16:25:02;2.80;;;1.30;;
58876;SDS011;44659;47.002;9.536;2022-11-20T16:27:29;2.38;;;1.10;;
58876;SDS011;44659;47.002;9.536;2022-11-20T16:29:54;2.17;;;1.20;;
58876;SDS011;44659;47.002;9.536;2022-11-20T16:32:19;2.25;;;1.27;;
58876;SDS011;44659;47.002;9.536;2022-11-20T16:34:44;2.38;;;1.20;;
58876;SDS011;44659;47.002;9.536;2022-11-20T16:37:09;3.70;;;1.23;;
58876;SDS011;44659;47.002;9.536;2022-11-20T16:39:35;1.88;;;1.00;;
58876;SDS011;44659;47.002;9.536;2022-11-20T16:42:03;1.67;;;1.08;;
58876;SDS011;44659;47.002;9.536;2022-11-20T16:44:28;1.63;;;0.95;;
58876;SDS011;44659;47.002;9.536;2022-11-20T16:46:53;2.55;;;1.42;;
58876;SDS011;44659;47.002;9.536;2022-11-20T16:49:19;12.68;;;4.65;;
58876;SDS011;44659;47.002;9.536;2022-11-20T16:51:44;20.88;;;9.30;;
58876;SDS011;44659;47.002;9.536;2022-11-20T16:54:09;5.80;;;2.45;;
58876;SDS011;44659;47.002;9.536;2022-11-20T16:56:35;4.20;;;1.65;;
58876;SDS011;44659;47.002;9.536;2022-11-20T16:59:00;6.75;;;1.85;;
58876;SDS011;44659;47.002;9.536;2022-11-20T17:01:27;2.70;;;1.67;;
58876;SDS011;44659;47.002;9.536;2022-11-20T17:03:55;5.55;;;1.70;;
58876;SDS011;44659;47.002;9.536;2022-11-20T17:06:22;2.22;;;1.33;;
58876;SDS011;44659;47.002;9.536;2022-11-20T17:08:48;2.75;;;1.40;;
58876;SDS011;44659;47.002;9.536;2022-11-20T17:11:14;2.97;;;1.45;;
58876;SDS011;44659;47.002;9.536;2022-11-20T17:13:40;5.15;;;2.42;;
58876;SDS011;44659;47.002;9.536;2022-11-20T17:16:06;9.18;;;2.65;;
58876;SDS011;44659;47.002;9.536;2022-11-20T17:18:32;4.35;;;1.90;;
58876;SDS011;44659;47.002;9.536;2022-11-20T17:20:57;3.83;;;1.70;;
58876;SDS011;44659;47.002;9.536;2022-11-20T17:23:26;3.05;;;1.48;;
58876;SDS011;44659;47.002;9.536;2022-11-20T17:25:51;31.75;;;13.95;;
58876;SDS011;44659;47.002;9.536;2022-11-20T17:28:17;49.50;;;19.85;;
58876;SDS011;44659;47.002;9.536;2022-11-20T17:30:42;34.65;;;15.90;;
58876;SDS011;44659;47.002;9.536;2022-11-20T17:33:07;11.52;;;5.10;;
58876;SDS011;44659;47.002;9.536;2022-11-20T17:35:34;3.55;;;1.90;;
58876;SDS011;44659;47.002;9.536;2022-11-20T17:38:00;4.68;;;2.50;;
58876;SDS011;44659;47.002;9.536;2022-11-20T17:40:25;4.22;;;2.22;;
58876;SDS011;44659;47.002;9.536;2022-11-20T17:42:50;2.57;;;1.30;;
58876;SDS011;44659;47.002;9.536;2022-11-20T17:45:15;4.10;;;1.70;;
58876;SDS011;44659;47.002;9.536;2022-11-20T17:47:40;4.20;;;1.90;;
58876;SDS011;44659;47.002;9.536;2022-11-20T17:50:08;3.15;;;1.60;;
58876;SDS011;44659;47.002;9.536;2022-11-20T17:52:33;3.10;;;1.60;;
58876;SDS011;44659;47.002;9.536;2022-11-20T17:54:59;3.28;;;1.65;;
58876;SDS011;44659;47.002;9.536;2022-11-20T17:57:24;4.70;;;2.40;;
58876;SDS011;44659;47.002;9.536;2022-11-20T18:00:08;3.58;;;1.50;;
58876;SDS011;44659;47.002;9.536;2022-11-20T18:02:37;4.72;;;1.75;;
58876;SDS011;44659;47.002;9.536;2022-11-20T18:05:02;1.95;;;1.20;;
58876;SDS011;44659;47.002;9.536;2022-11-20T18:07:27;2.75;;;1.55;;
58876;SDS011;44659;47.002;9.536;2022-11-20T18:09:52;2.58;;;1.40;;
58876;SDS011;44659;47.002;9.536;2022-11-20T18:12:18;3.33;;;1.58;;
58876;SDS011;44659;47.002;9.536;2022-11-20T18:14:43;4.82;;;1.60;;
58876;SDS011;44659;47.002;9.536;2022-11-20T18:17:12;3.50;;;1.90;;
58876;SDS011;44659;47.002;9.536;2022-11-20T18:19:39;5.05;;;1.88;;
58876;SDS011;44659;47.002;9.536;2022-11-20T18:22:04;5.47;;;1.88;;
58876;SDS011;44659;47.002;9.536;2022-11-20T18:24:31;7.53;;;2.35;;
58876;SDS011;44659;47.002;9.536;2022-11-20T18:26:57;6.10;;;2.17;;
58876;SDS011;44659;47.002;9.536;2022-11-20T18:29:23;3.00;;;1.70;;
58876;SDS011;44659;47.002;9.536;2022-11-20T18:31:48;3.53;;;1.60;;
58876;SDS011;44659;47.002;9.536;2022-11-20T18:34:14;3.78;;;1.50;;
58876;SDS011;44659;47.002;9.536;2022-11-20T18:36:40;4.18;;;1.40;;
58876;SDS011;44659;47.002;9.536;2022-11-20T18:39:06;2.67;;;1.45;;
58876;SDS011;44659;47.002;9.536;2022-11-20T18:41:31;2.78;;;1.27;;
58876;SDS011;44659;47.002;9.536;2022-11-20T18:44:16;3.80;;;1.42;;
58876;SDS011;44659;47.002;9.536;2022-11-20T18:47:00;3.50;;;1.40;;
58876;SDS011;44659;47.002;9.536;2022-11-20T18:49:25;4.38;;;1.92;;
58876;SDS011;44659;47.002;9.536;2022-11-20T18:51:51;4.83;;;1.40;;
58876;SDS011;44659;47.002;9.536;2022-11-20T18:54:16;3.67;;;1.70;;
58876;SDS011;44659;47.002;9.536;2022-11-20T18:56:44;5.82;;;1.83;;
58876;SDS011;44659;47.002;9.536;2022-11-20T18:59:09;5.75;;;1.90;;
58876;SDS011;44659;47.002;9.536;2022-11-20T19:01:35;5.85;;;2.03;;
58876;SDS011;44659;47.002;9.536;2022-11-20T19:04:01;4.95;;;1.90;;
58876;SDS011;44659;47.002;9.536;2022-11-20T19:06:29;8.48;;;2.17;;
58876;SDS011;44659;47.002;9.536;2022-11-20T19:08:55;7.50;;;1.95;;
58876;SDS011;44659;47.002;9.536;2022-11-20T19:11:20;4.40;;;2.00;;
58876;SDS011;44659;47.002;9.536;2022-11-20T19:13:45;3.70;;;1.88;;
58876;SDS011;44659;47.002;9.536;2022-11-20T19:16:19;9.77;;;1.98;;
58876;SDS011;44659;47.002;9.536;2022-11-20T19:18:46;4.88;;;2.22;;
58876;SDS011;44659;47.002;9.536;2022-11-20T19:21:16;4.35;;;2.00;;
58876;SDS011;44659;47.002;9.536;2022-11-20T19:23:42;5.82;;;2.20;;
58876;SDS011;44659;47.002;9.536;2022-11-20T19:26:07;5.15;;;2.05;;
58876;SDS011;44659;47.002;9.536;2022-11-20T19:28:33;3.95;;;2.20;;
58876;SDS011;44659;47.002;9.536;2022-11-20T19:31:41;6.55;;;2.22;;
58876;SDS011;44659;47.002;9.536;2022-11-20T19:33:47;4.38;;;1.85;;
58876;SDS011;44659;47.002;9.536;2022-11-20T19:36:16;3.72;;;1.70;;
58876;SDS011;44659;47.002;9.536;2022-11-20T19:38:42;5.93;;;2.00;;
58876;SDS011;44659;47.002;9.536;2022-11-20T19:41:08;5.53;;;2.17;;
58876;SDS011;44659;47.002;9.536;2022-11-20T19:43:33;4.53;;;1.70;;
58876;SDS011;44659;47.002;9.536;2022-11-20T19:45:59;4.03;;;1.90;;
58876;SDS011;44659;47.002;9.536;2022-11-20T19:48:24;4.22;;;1.70;;
58876;SDS011;44659;47.002;9.536;2022-11-20T19:50:50;4.25;;;1.92;;
58876;SDS011;44659;47.002;9.536;2022-11-20T19:53:15;7.63;;;2.28;;
58876;SDS011;44659;47.002;9.536;2022-11-20T19:55:40;5.05;;;2.28;;
58876;SDS011;44659;47.002;9.536;2022-11-20T19:58:07;4.43;;;2.30;;
58876;SDS011;44659;47.002;9.536;2022-11-20T20:00:32;5.77;;;2.00;;
58876;SDS011;44659;47.002;9.536;2022-11-20T20:02:57;3.93;;;2.07;;
58876;SDS011;44659;47.002;9.536;2022-11-20T20:05:22;3.72;;;1.90;;
58876;SDS011;44659;47.002;9.536;2022-11-20T20:07:48;5.23;;;2.47;;
58876;SDS011;44659;47.002;9.536;2022-11-20T20:10:13;4.80;;;1.90;;
58876;SDS011;44659;47.002;9.536;2022-11-20T20:12:38;2.90;;;1.70;;
58876;SDS011;44659;47.002;9.536;2022-11-20T20:15:04;4.20;;;1.88;;
58876;SDS011;44659;47.002;9.536;2022-11-20T20:17:30;4.60;;;1.80;;
58876;SDS011;44659;47.002;9.536;2022-11-20T20:19:55;7.40;;;2.28;;
58876;SDS011;44659;47.002;9.536;2022-11-20T20:22:21;4.43;;;1.80;;
58876;SDS011;44659;47.002;9.536;2022-11-20T20:24:46;3.55;;;1.73;;
58876;SDS011;44659;47.002;9.536;2022-11-20T20:27:11;3.97;;;1.70;;
58876;SDS011;44659;47.002;9.536;2022-11-20T20:29:36;3.75;;;1.75;;
58876;SDS011;44659;47.002;9.536;2022-11-20T20:32:01;4.10;;;1.93;;
58876;SDS011;44659;47.002;9.536;2022-11-20T20:34:27;4.50;;;1.90;;
58876;SDS011;44659;47.002;9.536;2022-11-20T20:36:55;5.22;;;2.38;;
58876;SDS011;44659;47.002;9.536;2022-11-20T20:39:20;4.77;;;2.10;;
58876;SDS011;44659;47.002;9.536;2022-11-20T20:44:29;4.55;;;1.70;;
58876;SDS011;44659;47.002;9.536;2022-11-20T20:47:12;4.07;;;1.70;;
58876;SDS011;44659;47.002;9.536;2022-11-20T20:49:38;2.73;;;1.43;;
58876;SDS011;44659;47.002;9.536;2022-11-20T20:52:03;5.43;;;1.83;;
58876;SDS011;44659;47.002;9.536;2022-11-20T20:54:28;4.10;;;2.05;;
58876;SDS011;44659;47.002;9.536;2022-11-20T20:56:53;4.93;;;2.07;;
58876;SDS011;44659;47.002;9.536;2022-11-20T20:59:18;6.32;;;2.58;;
58876;SDS011;44659;47.002;9.536;2022-11-20T21:01:44;5.10;;;2.00;;
58876;SDS011;44659;47.002;9.536;2022-11-20T21:04:09;3.90;;;1.95;;
58876;SDS011;44659;47.002;9.536;2022-11-20T21:06:35;4.65;;;2.05;;
58876;SDS011;44659;47.002;9.536;2022-11-20T21:09:00;9.40;;;2.35;;
58876;SDS011;44659;47.002;9.536;2022-11-20T21:11:25;5.50;;;2.30;;
58876;SDS011;44659;47.002;9.536;2022-11-20T21:13:51;8.50;;;2.20;;
58876;SDS011;44659;47.002;9.536;2022-11-20T21:16:16;4.07;;;2.03;;
58876;SDS011;44659;47.002;9.536;2022-11-20T21:18:42;4.95;;;1.90;;
58876;SDS011;44659;47.002;9.536;2022-11-20T21:21:08;4.00;;;1.98;;
58876;SDS011;44659;47.002;9.536;2022-11-20T21:23:54;4.43;;;2.10;;
58876;SDS011;44659;47.002;9.536;2022-11-20T21:26:19;4.87;;;2.27;;
58876;SDS011;44659;47.002;9.536;2022-11-20T21:28:44;5.40;;;2.40;;
58876;SDS011;44659;47.002;9.536;2022-11-20T21:31:10;5.53;;;2.40;;
58876;SDS011;44659;47.002;9.536;2022-11-20T21:33:37;5.68;;;2.30;;
58876;SDS011;44659;47.002;9.536;2022-11-20T21:36:03;5.57;;;2.25;;
58876;SDS011;44659;47.002;9.536;2022-11-20T21:38:28;5.35;;;2.30;;
58876;SDS011;44659;47.002;9.536;2022-11-20T21:40:55;6.13;;;2.45;;
58876;SDS011;44659;47.002;9.536;2022-11-20T21:43:21;6.55;;;2.20;;
58876;SDS011;44659;47.002;9.536;2022-11-20T21:45:46;3.67;;;2.13;;
58876;SDS011;44659;47.002;9.536;2022-11-20T21:48:11;4.93;;;2.07;;
58876;SDS011;44659;47.002;9.536;2022-11-20T21:50:36;4.20;;;1.90;;
58876;SDS011;44659;47.002;9.536;2022-11-20T21:53:01;6.93;;;2.10;;
58876;SDS011;44659;47.002;9.536;2022-11-20T21:55:27;5.33;;;2.27;;
58876;SDS011;44659;47.002;9.536;2022-11-20T21:57:52;4.20;;;2.03;;
58876;SDS011;44659;47.002;9.536;2022-11-20T22:00:17;5.87;;;2.43;;
58876;SDS011;44659;47.002;9.536;2022-11-20T22:02:42;8.07;;;2.47;;
58876;SDS011;44659;47.002;9.536;2022-11-20T22:05:08;6.80;;;2.20;;
58876;SDS011;44659;47.002;9.536;2022-11-20T22:07:33;5.25;;;1.83;;
58876;SDS011;44659;47.002;9.536;2022-11-20T22:09:59;6.07;;;2.58;;
58876;SDS011;44659;47.002;9.536;2022-11-20T22:12:24;4.27;;;1.73;;
58876;SDS011;44659;47.002;9.536;2022-11-20T22:14:49;5.60;;;1.98;;
58876;SDS011;44659;47.002;9.536;2022-11-20T22:17:14;7.10;;;2.20;;
58876;SDS011;44659;47.002;9.536;2022-11-20T22:19:39;4.30;;;2.10;;
58876;SDS011;44659;47.002;9.536;2022-11-20T22:22:05;5.27;;;2.30;;
58876;SDS011;44659;47.002;9.536;2022-11-20T22:24:30;5.33;;;2.20;;
58876;SDS011;44659;47.002;9.536;2022-11-20T22:26:55;4.63;;;1.90;;
58876;SDS011;44659;47.002;9.536;2022-11-20T22:29:20;3.22;;;1.52;;
58876;SDS011;44659;47.002;9.536;2022-11-20T22:31:46;3.97;;;2.15;;
58876;SDS011;44659;47.002;9.536;2022-11-20T22:34:12;4.97;;;1.88;;
58876;SDS011;44659;47.002;9.536;2022-11-20T22:36:37;4.97;;;2.30;;